Time;durP1;ratioP1;P1;durP2;ratioP2;P2;SDS_P1;SDS_P2;PMS_P1;PMS_P2;Temp;Humidity;BMP_temperature;BMP_pressure;BME280_temperature;BME280_humidity;BME280_pressure;Samples;Min_cycle;Max_cycle;Signal;HPM_P1;HPM_P2
2023/09/16 00:00:11;;;;;;;24.83;12.93;;;;;;;22.73;90.41;101006.59;4991495;28;20402;-82
2023/09/16 00:02:37;;;;;;;17.23;10.30;;;;;;;22.73;90.24;101006.59;4991887;28;20027;-80
2023/09/16 00:05:04;;;;;;;21.58;10.75;;;;;;;22.70;89.70;101012.47;4974425;28;20034;-79
2023/09/16 00:07:31;;;;;;;19.52;10.40;;;;;;;22.66;89.49;101013.88;4943036;28;20521;-81
2023/09/16 00:09:57;;;;;;;19.77;12.30;;;;;;;22.61;89.73;101004.50;4974359;28;20406;-82
2023/09/16 00:12:26;;;;;;;21.17;12.80;;;;;;;22.62;90.34;101004.31;4991422;28;20465;-82
2023/09/16 00:14:57;;;;;;;26.45;11.43;;;;;;;22.60;90.47;101011.88;4992940;28;20022;-83
2023/09/16 00:17:23;;;;;;;17.73;11.85;;;;;;;22.47;90.73;100989.81;4996596;28;20057;-82
2023/09/16 00:19:56;;;;;;;22.08;12.65;;;;;;;22.39;91.25;100969.88;4995679;28;20030;-81
2023/09/16 00:22:21;;;;;;;22.58;11.45;;;;;;;22.60;91.56;101000.91;4994678;28;20053;-81
2023/09/16 00:24:47;;;;;;;17.83;11.13;;;;;;;22.58;91.12;101003.00;4992747;28;20506;-82
2023/09/16 00:27:12;;;;;;;21.45;11.57;;;;;;;22.44;91.14;100984.72;4991883;28;20026;-80
2023/09/16 00:29:37;;;;;;;23.52;12.35;;;;;;;22.45;91.12;100989.13;4992009;28;20422;-82
2023/09/16 00:32:04;;;;;;;18.55;11.07;;;;;;;22.53;91.26;101004.63;4941083;28;20038;-81
2023/09/16 00:34:30;;;;;;;17.65;11.82;;;;;;;22.53;91.28;100999.16;4991410;28;20058;-81
2023/09/16 00:36:55;;;;;;;12.70;11.30;;;;;;;22.50;91.29;101005.88;4991159;28;20084;-81
2023/09/16 00:39:22;;;;;;;23.85;10.23;;;;;;;22.51;91.52;101007.56;4991455;28;20030;-79
2023/09/16 00:41:48;;;;;;;13.98;10.82;;;;;;;22.49;91.66;100998.69;4991132;28;20038;-81
2023/09/16 00:44:13;;;;;;;17.85;10.32;;;;;;;22.46;91.95;101001.81;4991024;28;20023;-81
2023/09/16 00:46:38;;;;;;;23.40;10.73;;;;;;;22.48;92.29;100999.72;4990724;28;20065;-81
2023/09/16 00:49:04;;;;;;;17.25;10.35;;;;;;;22.48;92.77;101002.47;4955941;28;20042;-79
2023/09/16 00:51:30;;;;;;;14.93;10.30;;;;;;;22.52;92.67;101003.78;4990692;28;20034;-82
2023/09/16 00:53:56;;;;;;;16.05;10.15;;;;;;;22.52;92.16;101008.41;4990416;28;20030;-80
2023/09/16 00:56:23;;;;;;;17.42;10.88;;;;;;;22.52;92.33;101003.78;4990385;28;20037;-78
2023/09/16 00:58:49;;;;;;;15.48;10.35;;;;;;;22.49;92.03;101004.16;4991268;28;20023;-80
2023/09/16 01:01:15;;;;;;;19.02;10.18;;;;;;;22.46;91.55;100988.09;4991058;28;20022;-81
2023/09/16 01:03:41;;;;;;;15.20;11.43;;;;;;;22.53;91.33;101010.97;4990772;28;20076;-80
2023/09/16 01:06:10;;;;;;;14.80;10.48;;;;;;;22.55;91.25;101014.34;4972107;28;20041;-81
2023/09/16 01:08:35;;;;;;;16.80;11.43;;;;;;;22.52;91.64;101008.41;4990533;28;20177;-79
2023/09/16 01:11:04;;;;;;;15.40;10.98;;;;;;;22.53;91.87;101012.84;4990472;28;20536;-81
2023/09/16 01:13:33;;;;;;;17.40;11.43;;;;;;;22.52;91.69;101013.88;4990074;28;20414;-81
2023/09/16 01:16:14;;;;;;;15.82;10.82;;;;;;;22.52;91.84;101017.50;4989952;28;20030;-81
2023/09/16 01:18:46;;;;;;;21.05;11.48;;;;;;;22.51;92.03;101029.47;4990035;28;20121;-80
2023/09/16 01:21:13;;;;;;;18.83;11.43;;;;;;;22.53;92.04;101024.69;4990105;28;20034;-79
2023/09/16 01:23:38;;;;;;;24.65;11.68;;;;;;;22.52;91.74;101022.97;4993211;28;20530;-82
2023/09/16 01:26:04;;;;;;;21.88;12.15;;;;;;;22.55;91.33;101022.59;4990330;28;20030;-81
2023/09/16 01:28:30;;;;;;;17.60;11.27;;;;;;;22.55;91.27;101030.81;4955889;28;20041;-80
2023/09/16 01:30:58;;;;;;;16.15;10.50;;;;;;;22.57;90.91;101025.13;4989821;28;20026;-82
2023/09/16 01:33:47;;;;;;;19.70;12.18;;;;;;;22.56;90.65;101028.94;4990489;28;20069;-80
2023/09/16 01:36:22;;;;;;;23.15;10.77;;;;;;;22.56;90.44;101028.94;4990369;28;20026;-81
2023/09/16 01:38:51;;;;;;;16.35;10.02;;;;;;;22.54;90.38;101040.06;4990252;28;20403;-81
2023/09/16 01:41:19;;;;;;;14.07;11.02;;;;;;;22.50;90.73;101038.78;4990990;28;20057;-82
2023/09/16 01:43:45;;;;;;;15.77;10.68;;;;;;;22.46;90.61;101039.34;4989796;28;20033;-81
2023/09/16 01:46:10;;;;;;;16.95;12.60;;;;;;;22.34;90.30;101028.00;4989589;28;20058;-78
2023/09/16 01:48:36;;;;;;;22.13;12.65;;;;;;;22.44;90.11;101038.69;4989963;28;20022;-81
2023/09/16 01:51:02;;;;;;;19.55;13.27;;;;;;;22.46;89.52;101045.66;4989686;28;20057;-81
2023/09/16 01:53:27;;;;;;;21.38;11.95;;;;;;;22.37;89.27;101037.75;4989783;28;20457;-81
2023/09/16 01:55:53;;;;;;;24.38;14.10;;;;;;;22.38;89.24;101042.19;4989642;28;20034;-79
2023/09/16 01:58:18;;;;;;;26.35;15.05;;;;;;;22.34;88.57;101046.34;4990076;28;20052;-82
2023/09/16 02:00:43;;;;;;;26.83;14.38;;;;;;;22.27;89.09;101040.78;4989027;28;20513;-80
2023/09/16 02:03:09;;;;;;;39.88;14.93;;;;;;;22.26;89.26;101041.84;4990239;28;20034;-79
2023/09/16 02:05:34;;;;;;;25.35;14.00;;;;;;;22.30;89.23;101048.63;4989903;28;20406;-81
2023/09/16 02:08:00;;;;;;;24.65;13.35;;;;;;;22.32;89.08;101045.69;4989907;28;20030;-85
2023/09/16 02:10:25;;;;;;;25.70;13.45;;;;;;;22.17;89.19;101026.50;4990175;28;20096;-79
2023/09/16 02:12:51;;;;;;;16.33;12.15;;;;;;;22.26;89.35;101049.19;4972149;28;20061;-80
2023/09/16 02:15:17;;;;;;;27.00;12.20;;;;;;;22.24;89.52;101055.72;4989968;28;20034;-83
2023/09/16 02:17:42;;;;;;;27.08;17.35;;;;;;;22.17;89.66;101053.91;4989544;28;20647;-81
2023/09/16 02:20:10;;;;;;;32.15;18.75;;;;;;;22.16;90.22;101054.97;4989694;28;20390;-81
2023/09/16 02:22:35;;;;;;;39.20;20.13;;;;;;;22.12;89.76;101051.75;4989598;28;20034;-81
2023/09/16 02:25:01;;;;;;;38.13;18.23;;;;;;;22.15;89.53;101062.34;4989999;28;20029;-82
2023/09/16 02:27:26;;;;;;;42.92;19.17;;;;;;;22.00;89.46;101038.72;4989212;28;20083;-80
2023/09/16 02:29:52;;;;;;;44.58;19.33;;;;;;;21.90;89.39;101038.13;4989256;28;20442;-80
2023/09/16 02:32:17;;;;;;;46.22;22.58;;;;;;;22.03;89.79;101057.50;4989680;28;20483;-81
2023/09/16 02:34:43;;;;;;;50.90;25.15;;;;;;;21.99;89.77;101062.50;4989155;28;20026;-80
2023/09/16 02:37:08;;;;;;;46.72;24.88;;;;;;;22.00;89.32;101074.31;4988944;28;20061;-79
2023/09/16 02:39:33;;;;;;;58.92;24.98;;;;;;;21.99;88.80;101062.50;4990092;28;20060;-81
2023/09/16 02:41:59;;;;;;;68.88;26.70;;;;;;;21.98;88.43;101059.97;4989903;28;20080;-82
2023/09/16 02:44:24;;;;;;;53.53;25.40;;;;;;;21.96;88.08;101062.03;4989329;28;20482;-80
2023/09/16 02:46:50;;;;;;;40.33;24.25;;;;;;;21.96;87.97;101078.47;4989557;28;20058;-82
2023/09/16 02:49:15;;;;;;;37.35;23.17;;;;;;;21.80;88.24;101064.94;4989771;28;20041;-80
2023/09/16 02:51:41;;;;;;;52.78;22.45;;;;;;;21.76;88.62;101071.81;4990124;28;20026;-81
2023/09/16 02:54:06;;;;;;;57.33;25.15;;;;;;;21.78;88.45;101083.41;4989976;28;20064;-82
2023/09/16 02:56:32;;;;;;;38.90;23.48;;;;;;;21.71;88.02;101086.91;4989575;28;20036;-81
2023/09/16 02:58:57;;;;;;;39.88;24.25;;;;;;;21.65;88.08;101087.66;4990358;28;20026;-82
2023/09/16 03:01:23;;;;;;;37.28;25.23;;;;;;;21.60;87.98;101090.09;4989711;28;20530;-80
2023/09/16 03:03:48;;;;;;;39.42;24.35;;;;;;;21.56;88.07;101087.91;4989849;28;20133;-81
2023/09/16 03:06:14;;;;;;;35.33;24.08;;;;;;;21.37;87.67;101050.13;4941864;28;20048;-77
2023/09/16 03:08:40;;;;;;;41.03;25.10;;;;;;;21.56;87.65;101083.28;5014490;28;20038;-80
2023/09/16 03:11:06;;;;;;;37.35;25.42;;;;;;;21.56;87.62;101088.75;5014656;28;20475;-77
2023/09/16 03:13:32;;;;;;;38.28;25.17;;;;;;;21.56;87.75;101094.22;5011418;28;20034;-83
2023/09/16 03:16:15;;;;;;;35.97;24.73;;;;;;;21.50;87.89;101092.22;5004222;28;20046;-82
2023/09/16 03:18:46;;;;;;;40.42;24.73;;;;;;;21.53;87.66;101100.06;4984352;28;20030;-81
2023/09/16 03:21:13;;;;;;;47.28;23.98;;;;;;;21.38;87.63;101079.16;5005229;28;20058;-81
2023/09/16 03:23:39;;;;;;;36.15;23.42;;;;;;;21.52;87.38;101098.41;4993600;28;20026;-82
2023/09/16 03:26:05;;;;;;;39.78;22.75;;;;;;;21.53;87.51;101091.88;4992809;28;20045;-80
2023/09/16 03:28:30;;;;;;;36.15;23.98;;;;;;;21.41;87.63;101085.13;4992560;28;20032;-80
2023/09/16 03:30:55;;;;;;;41.28;22.35;;;;;;;21.42;88.11;101092.31;4993105;28;20658;-81
2023/09/16 03:33:21;;;;;;;36.38;22.35;;;;;;;21.49;87.94;101103.38;4992735;28;20034;-79
2023/09/16 03:35:46;;;;;;;31.45;21.58;;;;;;;21.28;87.56;101073.13;4992345;28;20037;-81
2023/09/16 03:38:12;;;;;;;34.45;23.20;;;;;;;21.45;87.19;101105.63;4992000;28;20037;-81
2023/09/16 03:40:37;;;;;;;54.83;22.70;;;;;;;21.46;86.80;101099.13;4992416;28;20858;-81
2023/09/16 03:43:04;;;;;;;38.80;21.63;;;;;;;21.52;86.50;101097.53;4992579;28;20026;-81
2023/09/16 03:45:29;;;;;;;38.70;20.25;;;;;;;21.54;86.24;101104.53;4991667;28;20103;-81
2023/09/16 03:47:55;;;;;;;51.45;23.73;;;;;;;21.46;85.85;101098.28;4992311;28;20499;-83
2023/09/16 03:50:20;;;;;;;70.30;24.65;;;;;;;21.35;85.75;101069.44;4992549;28;20022;-81
2023/09/16 03:52:48;;;;;;;50.65;24.77;;;;;;;21.57;85.72;101106.91;4956931;28;20042;-81
2023/09/16 03:55:13;;;;;;;41.30;26.25;;;;;;;21.45;86.00;101107.50;4991629;28;20149;-80
2023/09/16 03:57:38;;;;;;;46.92;26.42;;;;;;;21.52;86.14;101122.19;4992405;28;20082;-81
2023/09/16 04:00:07;;;;;;;36.30;22.42;;;;;;;21.53;85.95;101121.13;4991941;28;20038;-80
2023/09/16 04:02:33;;;;;;;50.05;26.02;;;;;;;21.51;85.86;101115.84;4992028;28;20054;-81
2023/09/16 04:04:58;;;;;;;51.70;27.27;;;;;;;21.41;86.06;101117.97;4991822;28;20069;-77
2023/09/16 04:07:23;;;;;;;47.25;25.75;;;;;;;21.40;86.22;101116.28;4991556;28;20022;-81
2023/09/16 04:09:49;;;;;;;37.20;26.83;;;;;;;21.41;86.27;101122.59;4991043;28;20027;-80
2023/09/16 04:12:14;;;;;;;37.90;27.83;;;;;;;21.45;85.82;101124.78;4991389;28;20019;-81
2023/09/16 04:14:40;;;;;;;42.20;26.25;;;;;;;21.47;85.62;101122.72;4991379;28;20041;-82
2023/09/16 04:17:05;;;;;;;39.58;26.20;;;;;;;21.43;85.61;101115.06;4991416;28;20100;-82
2023/09/16 04:19:31;;;;;;;47.33;27.00;;;;;;;21.43;85.51;101115.91;4991363;28;20112;-82
2023/09/16 04:21:56;;;;;;;39.90;25.50;;;;;;;21.45;85.59;101119.31;4991494;28;20109;-78
2023/09/16 04:24:22;;;;;;;49.30;27.05;;;;;;;21.31;85.46;101090.03;4991389;28;20427;-80
2023/09/16 04:26:47;;;;;;;54.65;26.35;;;;;;;21.43;85.69;101113.19;4990969;28;20072;-78
2023/09/16 04:29:13;;;;;;;45.08;26.23;;;;;;;21.43;85.81;101106.84;4990987;28;20034;-82
2023/09/16 04:31:38;;;;;;;56.25;27.45;;;;;;;21.47;85.71;101111.75;4923550;28;20053;-78
2023/09/16 04:34:04;;;;;;;77.57;28.55;;;;;;;21.52;85.77;101113.97;4990896;28;20022;-81
2023/09/16 04:36:29;;;;;;;47.97;24.35;;;;;;;21.51;86.16;101115.00;4991102;28;20088;-80
2023/09/16 04:38:55;;;;;;;48.50;23.20;;;;;;;21.52;86.49;101119.44;4991159;28;20142;-82
2023/09/16 04:41:21;;;;;;;50.90;23.33;;;;;;;21.57;86.61;101123.31;4989831;28;20026;-81
2023/09/16 04:43:49;;;;;;;51.40;21.55;;;;;;;21.62;86.98;101115.41;4990414;28;20029;-79
2023/09/16 04:46:16;;;;;;;38.42;18.52;;;;;;;21.63;86.87;101117.09;4988443;28;20066;-81
2023/09/16 04:48:42;;;;;;;30.75;19.48;;;;;;;21.53;86.89;101083.66;4986556;28;20093;-80
2023/09/16 04:51:07;;;;;;;51.75;20.60;;;;;;;21.71;86.63;101113.47;4991188;28;20487;-81
2023/09/16 04:53:33;;;;;;;39.42;19.15;;;;;;;21.81;86.21;101115.91;4990893;28;20026;-81
2023/09/16 04:56:00;;;;;;;39.42;20.15;;;;;;;21.84;85.77;101104.59;4990752;28;20097;-80
2023/09/16 04:58:26;;;;;;;32.53;17.75;;;;;;;21.82;85.43;101087.50;4991132;28;20026;-81
2023/09/16 05:00:51;;;;;;;33.13;16.73;;;;;;;22.00;85.21;101112.69;4991261;28;20451;-82
2023/09/16 05:03:18;;;;;;;34.35;16.83;;;;;;;22.07;85.03;101124.59;4991324;28;20034;-84
2023/09/16 05:05:46;;;;;;;39.58;19.15;;;;;;;22.13;84.79;101123.84;4991028;28;20407;-82
2023/09/16 05:08:11;;;;;;;42.10;16.50;;;;;;;22.22;85.10;101128.19;4975179;28;20064;-94
2023/09/16 05:10:37;;;;;;;38.78;18.00;;;;;;;22.16;84.55;101090.59;4958832;28;20102;-92
2023/09/16 05:13:03;;;;;;;32.65;15.80;;;;;;;22.46;83.99;101122.44;4993095;28;20022;-88
2023/09/16 05:15:28;;;;;;;67.60;20.98;;;;;;;22.57;83.47;101127.41;4997820;28;20022;-94
2023/09/16 05:17:54;;;;;;;58.08;20.58;;;;;;;22.67;82.96;101136.25;4993848;28;20030;-90
2023/09/16 05:20:19;;;;;;;56.55;22.10;;;;;;;22.77;82.73;101127.72;4993369;28;20042;-86
2023/09/16 05:22:47;;;;;;;59.83;21.98;;;;;;;22.85;82.47;101134.97;4992845;28;20030;-82
2023/09/16 05:25:13;;;;;;;43.53;21.30;;;;;;;22.87;81.15;101114.56;4989845;28;20026;-81
2023/09/16 05:27:38;;;;;;;47.50;21.27;;;;;;;22.97;80.41;101127.94;4990509;28;20125;-79
2023/09/16 05:30:04;;;;;;;62.10;22.77;;;;;;;23.01;80.11;101119.16;4972771;28;20053;-82
2023/09/16 05:32:30;;;;;;;57.67;23.15;;;;;;;23.14;79.57;101118.44;4990160;28;20037;-81
2023/09/16 05:34:55;;;;;;;67.03;23.48;;;;;;;23.26;79.24;101127.88;4990224;28;20019;-80
2023/09/16 05:37:21;;;;;;;51.80;21.15;;;;;;;23.34;79.05;101133.22;4990844;28;20034;-79
2023/09/16 05:39:46;;;;;;;58.53;22.58;;;;;;;23.39;78.99;101122.56;4990510;28;20111;-79
2023/09/16 05:42:12;;;;;;;60.78;26.23;;;;;;;23.46;79.02;101123.44;4988328;28;20103;-80
2023/09/16 05:44:37;;;;;;;52.70;26.55;;;;;;;23.47;78.29;101133.41;4990058;28;20101;-81
2023/09/16 05:47:02;;;;;;;56.67;24.77;;;;;;;23.39;77.82;101106.09;4990649;28;20177;-82
2023/09/16 05:49:28;;;;;;;44.72;26.00;;;;;;;23.50;77.47;101138.50;4989156;28;20474;-79
2023/09/16 05:51:53;;;;;;;46.67;26.38;;;;;;;23.40;76.85;101113.25;4990354;28;21035;-80
2023/09/16 05:54:20;;;;;;;57.67;27.75;;;;;;;23.57;76.94;101142.16;4990550;28;20078;-81
2023/09/16 05:56:46;;;;;;;45.83;28.77;;;;;;;23.58;75.89;101143.00;4989597;28;20467;-83
2023/09/16 05:59:15;;;;;;;49.10;27.77;;;;;;;23.56;75.51;101145.94;4989617;28;20037;-81
2023/09/16 06:01:46;;;;;;;62.08;31.13;;;;;;;23.52;75.38;101150.13;4987290;28;20022;-83
2023/09/16 06:04:11;;;;;;;69.63;32.33;;;;;;;23.56;75.43;101151.44;4990360;28;20038;-81
2023/09/16 06:07:00;;;;;;;74.18;31.80;;;;;;;23.66;75.48;101148.38;4989816;28;20026;-81
2023/09/16 06:09:27;;;;;;;71.55;30.65;;;;;;;23.71;75.54;101149.47;4891941;29;20048;-80
2023/09/16 06:11:52;;;;;;;64.95;30.45;;;;;;;23.68;75.07;101135.28;4890927;29;20040;-81
2023/09/16 06:14:18;;;;;;;49.65;32.88;;;;;;;23.70;74.38;101157.91;4891299;29;20052;-80
2023/09/16 06:16:43;;;;;;;73.32;32.15;;;;;;;23.74;74.81;101164.72;4890336;29;20032;-78
2023/09/16 06:19:09;;;;;;;65.65;33.53;;;;;;;23.82;75.28;101165.41;4891565;29;20123;-81
2023/09/16 06:21:34;;;;;;;56.05;33.83;;;;;;;23.89;74.78;101168.22;4891399;29;20180;-81
2023/09/16 06:24:00;;;;;;;46.55;28.95;;;;;;;23.98;74.21;101171.66;4891790;29;20107;-88
2023/09/16 06:26:26;;;;;;;91.55;33.03;;;;;;;23.96;73.88;101157.28;4891303;29;20048;-84
2023/09/16 06:28:51;;;;;;;65.30;29.63;;;;;;;24.10;73.83;101170.06;4892085;29;20486;-81
2023/09/16 06:31:17;;;;;;;48.42;30.20;;;;;;;24.09;73.88;101169.25;4891434;29;20826;-84
2023/09/16 06:33:42;;;;;;;60.03;30.67;;;;;;;23.97;73.56;101154.34;4873582;29;20037;-82
2023/09/16 06:36:08;;;;;;;73.95;31.88;;;;;;;24.26;73.68;101181.66;4872950;29;20052;-84
2023/09/16 06:38:33;;;;;;;44.05;29.65;;;;;;;24.38;73.24;101180.06;4872323;29;20056;-81
2023/09/16 06:40:59;;;;;;;57.15;28.98;;;;;;;24.37;72.75;101158.28;4872223;29;20103;-83
2023/09/16 06:43:24;;;;;;;45.53;27.55;;;;;;;24.58;72.25;101190.34;4841246;29;20132;-85
2023/09/16 06:45:50;;;;;;;53.63;27.45;;;;;;;24.70;71.87;101195.06;4897404;28;20495;-86
2023/09/16 06:48:16;;;;;;;49.20;25.83;;;;;;;24.80;71.42;101192.78;4935263;28;20518;-87
2023/09/16 06:50:42;;;;;;;52.90;27.13;;;;;;;24.91;71.23;101196.91;4967201;28;20039;-84
2023/09/16 06:53:08;;;;;;;39.85;23.73;;;;;;;25.00;70.87;101195.69;4967061;28;20043;-85
2023/09/16 06:55:33;;;;;;;41.88;22.67;;;;;;;24.84;70.59;101163.00;4971799;28;20086;-84
2023/09/16 06:57:59;;;;;;;51.75;23.65;;;;;;;24.89;70.08;101193.53;4972274;28;20030;-89
2023/09/16 07:00:24;;;;;;;58.88;25.23;;;;;;;25.01;70.22;101200.13;4956892;28;20047;-85
2023/09/16 07:02:50;;;;;;;38.65;21.23;;;;;;;24.98;70.54;101208.81;4972007;28;20085;-88
2023/09/16 07:05:15;;;;;;;45.03;19.58;;;;;;;24.98;70.24;101208.81;4987683;28;20050;-84
2023/09/16 07:07:41;;;;;;;27.10;12.93;;;;;;;25.09;69.84;101199.09;4994307;28;20102;-87
2023/09/16 07:10:07;;;;;;;117.78;20.15;;;;;;;25.17;69.10;101205.25;4994034;28;20028;-87
2023/09/16 07:12:32;;;;;;;24.60;10.57;;;;;;;25.30;68.84;101199.81;4993555;28;20041;-86
2023/09/16 07:14:58;;;;;;;13.63;9.07;;;;;;;25.26;68.78;101200.41;4993451;28;20033;-87
2023/09/16 07:17:23;;;;;;;14.93;8.68;;;;;;;25.01;68.57;101169.88;4994372;28;20022;-85
2023/09/16 07:19:49;;;;;;;26.60;10.02;;;;;;;25.10;68.86;101178.78;4976335;28;20042;-85
2023/09/16 07:22:14;;;;;;;27.08;9.75;;;;;;;25.41;68.83;101201.97;4994428;28;20125;-85
2023/09/16 07:24:40;;;;;;;21.83;8.63;;;;;;;25.42;68.37;101211.06;4993774;28;20121;-88
2023/09/16 07:27:05;;;;;;;27.10;9.55;;;;;;;25.33;67.89;101206.81;4994132;28;20026;-86
2023/09/16 07:29:31;;;;;;;21.55;7.80;;;;;;;25.53;68.31;101215.19;4993402;28;20092;-88
2023/09/16 07:31:56;;;;;;;14.88;8.27;;;;;;;25.57;67.48;101214.53;4993105;28;20026;-88
2023/09/16 07:34:22;;;;;;;14.85;9.07;;;;;;;25.43;69.04;101221.03;4993817;28;20574;-88
2023/09/16 07:36:48;;;;;;;15.95;8.38;;;;;;;25.52;69.40;101225.34;4993703;28;20124;-88
2023/09/16 07:39:14;;;;;;;28.45;9.07;;;;;;;25.42;69.71;101200.06;4993278;28;20034;-88
2023/09/16 07:41:40;;;;;;;28.70;9.80;;;;;;;25.78;69.37;101233.66;4994142;28;20022;-87
2023/09/16 07:44:06;;;;;;;17.95;7.97;;;;;;;25.76;68.72;101227.50;4993519;28;20026;-86
2023/09/16 07:46:31;;;;;;;13.70;7.93;;;;;;;25.64;68.37;101207.16;4993946;28;20057;-84
2023/09/16 07:48:57;;;;;;;10.38;6.75;;;;;;;25.74;67.92;101221.38;4995150;28;20033;-87
2023/09/16 07:51:22;;;;;;;69.05;12.35;;;;;;;25.90;67.91;101236.66;4995531;28;20348;-88
2023/09/16 07:53:48;;;;;;;21.45;8.02;;;;;;;26.04;66.94;101232.00;4997452;28;20038;-86
2023/09/16 07:56:16;;;;;;;15.10;6.53;;;;;;;26.03;65.85;101224.78;4960485;28;20058;-86
2023/09/16 07:58:41;;;;;;;22.40;7.85;;;;;;;26.17;65.01;101234.81;5007039;28;20022;-85
2023/09/16 08:01:07;;;;;;;17.95;7.85;;;;;;;26.22;64.74;101240.53;5015174;28;20014;-83
2023/09/16 08:03:32;;;;;;;17.05;6.85;;;;;;;26.31;64.27;101244.75;5016232;28;20026;-83
2023/09/16 08:05:58;;;;;;;16.42;6.10;;;;;;;26.25;63.62;101218.03;5015528;28;20030;-84
2023/09/16 08:08:23;;;;;;;15.50;6.57;;;;;;;26.41;64.17;101234.16;5018970;28;20027;-84
2023/09/16 08:10:50;;;;;;;12.50;6.15;;;;;;;26.46;63.84;101237.09;5018984;28;20033;-84
2023/09/16 08:13:20;;;;;;;12.93;6.03;;;;;;;26.32;61.60;101233.53;5005741;28;20022;-88
2023/09/16 08:15:46;;;;;;;19.40;6.82;;;;;;;26.49;62.70;101231.16;4998203;28;20118;-90
2023/09/16 08:18:11;;;;;;;17.77;9.10;;;;;;;26.69;62.30;101240.28;4996559;28;20536;-88
2023/09/16 08:20:37;;;;;;;28.98;7.82;;;;;;;26.73;61.94;101213.91;4994306;28;20038;-86
2023/09/16 08:23:02;;;;;;;17.83;6.18;;;;;;;26.93;62.47;101249.81;4993114;28;20052;-88
2023/09/16 08:25:27;;;;;;;26.98;7.82;;;;;;;26.94;62.44;101230.25;4992729;28;20030;-85
2023/09/16 08:27:53;;;;;;;19.00;7.30;;;;;;;26.81;62.39;101240.50;4992424;28;20030;-87
2023/09/16 08:30:18;;;;;;;20.52;6.95;;;;;;;26.87;62.28;101248.75;4992334;28;20092;-85
2023/09/16 08:32:44;;;;;;;11.95;6.13;;;;;;;26.80;63.02;101241.56;4992523;28;20071;-86
2023/09/16 08:35:10;;;;;;;17.30;6.97;;;;;;;26.93;62.59;101250.66;4992534;28;20410;-87
2023/09/16 08:37:35;;;;;;;18.75;6.75;;;;;;;26.98;60.99;101242.56;4991857;28;20022;-87
2023/09/16 08:40:01;;;;;;;16.70;5.93;;;;;;;27.08;61.21;101232.97;4974707;28;20061;-86
2023/09/16 08:42:43;;;;;;;35.33;7.03;;;;;;;27.05;62.40;101242.53;4992464;28;20022;-87
2023/09/16 08:45:14;;;;;;;18.83;5.80;;;;;;;27.08;62.59;101236.59;4992125;28;20034;-85
2023/09/16 08:47:43;;;;;;;29.20;9.10;;;;;;;27.15;62.15;101250.38;4957614;28;20176;-88
2023/09/16 08:50:10;;;;;;;31.92;6.75;;;;;;;27.20;59.44;101256.09;4991196;28;20121;-88
2023/09/16 08:52:49;;;;;;;24.08;6.85;;;;;;;27.08;60.06;101230.22;4991134;28;20112;-89
2023/09/16 08:55:16;;;;;;;29.95;6.43;;;;;;;27.16;60.99;101249.28;4991492;28;20030;-86
2023/09/16 08:57:49;;;;;;;24.23;7.90;;;;;;;27.18;61.06;101241.66;4991344;28;20031;-86
2023/09/16 09:00:15;;;;;;;23.40;7.40;;;;;;;27.10;62.43;101244.63;4991924;28;20495;-86
2023/09/16 09:02:41;;;;;;;23.15;6.25;;;;;;;27.14;61.84;101252.28;4992067;28;20131;-86
2023/09/16 09:05:08;;;;;;;25.77;6.55;;;;;;;27.07;59.87;101251.44;4992279;28;20096;-87
2023/09/16 09:07:39;;;;;;;18.95;6.13;;;;;;;27.14;60.67;101251.44;4991515;28;20026;-88
2023/09/16 09:10:05;;;;;;;16.52;6.50;;;;;;;27.06;62.06;101249.78;4992638;28;20479;-85
2023/09/16 09:12:33;;;;;;;15.18;6.32;;;;;;;27.14;62.32;101251.44;4994876;28;20035;-87
2023/09/16 09:15:05;;;;;;;10.18;6.43;;;;;;;27.04;62.94;101240.84;4991938;28;20061;-86
2023/09/16 09:17:38;;;;;;;14.75;6.03;;;;;;;26.92;63.21;101245.34;4990847;28;20030;-86
2023/09/16 09:20:11;;;;;;;24.02;6.55;;;;;;;26.81;63.18;101252.38;4991670;28;20034;-85
2023/09/16 09:22:40;;;;;;;17.45;6.70;;;;;;;26.79;63.77;101237.03;4991085;28;20127;-88
2023/09/16 09:25:07;;;;;;;17.98;6.57;;;;;;;26.90;62.91;101245.56;4991255;28;20030;-87
2023/09/16 09:27:33;;;;;;;18.42;5.55;;;;;;;27.04;61.94;101240.84;4991515;28;20137;-86
2023/09/16 09:29:58;;;;;;;8.20;5.40;;;;;;;27.07;60.68;101239.56;4941698;28;20077;-86
2023/09/16 09:32:29;;;;;;;11.85;5.88;;;;;;;27.26;61.50;101244.16;4991213;28;20107;-86
2023/09/16 09:34:55;;;;;;;28.15;7.03;;;;;;;27.35;60.52;101240.06;4976554;28;20038;-86
2023/09/16 09:37:20;;;;;;;12.50;5.90;;;;;;;27.43;61.07;101229.66;4993104;28;20063;-87
2023/09/16 09:40:03;;;;;;;28.00;7.05;;;;;;;27.35;61.15;101227.13;4992801;28;20026;-87
2023/09/16 09:42:29;;;;;;;17.90;5.45;;;;;;;27.37;59.84;101227.72;4991490;28;20090;-86
2023/09/16 09:45:03;;;;;;;25.30;7.55;;;;;;;27.35;60.38;101231.78;4992866;28;20038;-88
2023/09/16 09:47:30;;;;;;;14.77;6.32;;;;;;;27.29;60.06;101224.38;4994022;28;20502;-87
2023/09/16 09:49:55;;;;;;;21.63;5.95;;;;;;;27.04;57.67;101180.94;4992174;28;20537;-86
2023/09/16 09:52:22;;;;;;;11.40;6.13;;;;;;;27.44;56.70;101242.41;4993143;28;20065;-88
2023/09/16 09:54:51;;;;;;;13.80;5.57;;;;;;;27.46;57.86;101244.97;4991492;28;20109;-85
2023/09/16 09:57:17;;;;;;;10.90;6.65;;;;;;;27.27;57.59;101241.19;4991607;28;20034;-86
2023/09/16 09:59:42;;;;;;;11.07;4.80;;;;;;;27.37;57.18;101246.22;4991675;28;20482;-85
2023/09/16 10:02:09;;;;;;;18.00;5.93;;;;;;;27.31;58.47;101241.56;4988601;28;20030;-88
2023/09/16 10:04:35;;;;;;;18.83;6.75;;;;;;;27.20;59.25;101245.03;4990835;28;20034;-87
2023/09/16 10:07:01;;;;;;;18.23;6.28;;;;;;;27.24;58.14;101238.00;4991073;28;20034;-86
2023/09/16 10:09:26;;;;;;;16.52;5.13;;;;;;;27.35;57.25;101249.22;4989693;28;20399;-80
2023/09/16 10:11:52;;;;;;;12.40;5.65;;;;;;;27.31;57.66;101250.72;4988432;28;20038;-80
2023/09/16 10:14:19;;;;;;;20.67;5.88;;;;;;;27.34;58.78;101244.75;4989249;28;20041;-80
2023/09/16 10:16:46;;;;;;;11.07;6.55;;;;;;;27.41;59.01;101250.25;4989021;28;20089;-80
2023/09/16 10:19:12;;;;;;;25.00;6.88;;;;;;;27.36;60.04;101230.72;4989078;28;20099;-80
2023/09/16 10:21:38;;;;;;;23.08;6.43;;;;;;;27.35;60.84;101249.22;4989188;28;20478;-80
2023/09/16 10:24:04;;;;;;;25.02;6.15;;;;;;;27.23;60.66;101244.59;4988837;28;20049;-80
2023/09/16 10:26:30;;;;;;;15.27;6.43;;;;;;;27.31;61.37;101249.88;4988843;28;20137;-80
2023/09/16 10:28:58;;;;;;;13.57;6.30;;;;;;;27.24;61.88;101246.31;4988519;28;20030;-80
2023/09/16 10:31:25;;;;;;;13.02;6.20;;;;;;;27.24;61.51;101236.09;4989270;28;20422;-80
2023/09/16 10:33:52;;;;;;;12.02;6.55;;;;;;;27.36;61.56;101244.53;4988389;28;20042;-82
2023/09/16 10:36:20;;;;;;;15.15;5.72;;;;;;;27.36;61.60;101220.53;4988618;28;20034;-79
2023/09/16 10:38:47;;;;;;;16.30;5.68;;;;;;;27.56;61.41;101250.84;4988920;28;20189;-86
2023/09/16 10:41:15;;;;;;;13.10;6.03;;;;;;;27.51;61.25;101246.00;4989030;28;20101;-81
2023/09/16 10:43:43;;;;;;;21.77;6.53;;;;;;;27.55;60.65;101216.00;4982545;28;20022;-79
2023/09/16 10:46:09;;;;;;;16.20;7.18;;;;;;;27.79;60.56;101239.25;4984461;28;20057;-81
2023/09/16 10:48:34;;;;;;;12.50;5.82;;;;;;;27.70;59.14;101229.50;4990807;28;20057;-84
2023/09/16 10:51:05;;;;;;;12.95;5.80;;;;;;;27.72;58.66;101228.22;4989979;28;20038;-82
2023/09/16 10:53:39;;;;;;;15.02;6.05;;;;;;;27.82;58.33;101228.59;4989329;28;20113;-81
2023/09/16 10:56:28;;;;;;;8.80;5.45;;;;;;;27.98;57.16;101216.13;4988842;28;20034;-80
2023/09/16 10:59:08;;;;;;;25.65;6.10;;;;;;;27.92;56.30;101215.09;4989341;28;20030;-81
2023/09/16 11:01:37;;;;;;;13.05;5.80;;;;;;;27.83;55.84;101208.13;4988509;28;20475;-79
2023/09/16 11:04:13;;;;;;;9.13;4.90;;;;;;;27.87;55.83;101226.00;4988094;28;20116;-79
2023/09/16 11:06:39;;;;;;;7.22;4.53;;;;;;;27.94;55.28;101209.34;4988642;28;20038;-81
2023/09/16 11:09:05;;;;;;;23.48;4.93;;;;;;;27.83;56.08;101201.75;4966149;28;20605;-82